sensor_id;sensor_type;location;lat;lon;timestamp;P1;durP1;ratioP1;P2;durP2;ratioP2
78925;SDS011;68321;51.276;7.208;2024-01-15T00:01:20;29.88;;;13.32;;
78925;SDS011;68321;51.276;7.208;2024-01-15T00:03:48;27.73;;;11.43;;
78925;SDS011;68321;51.276;7.208;2024-01-15T00:06:13;24.63;;;12.25;;
78925;SDS011;68321;51.276;7.208;2024-01-15T00:08:39;24.88;;;11.35;;
78925;SDS011;68321;51.276;7.208;2024-01-15T00:11:07;25.75;;;13.00;;
78925;SDS011;68321;51.276;7.208;2024-01-15T00:13:32;26.52;;;12.70;;
78925;SDS011;68321;51.276;7.208;2024-01-15T00:15:59;28.70;;;12.75;;
78925;SDS011;68321;51.276;7.208;2024-01-15T00:18:26;23.17;;;11.88;;
78925;SDS011;68321;51.276;7.208;2024-01-15T00:20:51;28.42;;;13.45;;
78925;SDS011;68321;51.276;7.208;2024-01-15T00:23:22;25.20;;;11.77;;
78925;SDS011;68321;51.276;7.208;2024-01-15T00:25:47;33.88;;;15.15;;
78925;SDS011;68321;51.276;7.208;2024-01-15T00:28:15;18.10;;;10.27;;
78925;SDS011;68321;51.276;7.208;2024-01-15T00:30:42;23.17;;;13.32;;
78925;SDS011;68321;51.276;7.208;2024-01-15T00:33:07;23.13;;;10.25;;
78925;SDS011;68321;51.276;7.208;2024-01-15T00:35:32;23.50;;;11.75;;
78925;SDS011;68321;51.276;7.208;2024-01-15T00:38:04;23.52;;;11.63;;
78925;SDS011;68321;51.276;7.208;2024-01-15T00:40:30;21.60;;;10.65;;
78925;SDS011;68321;51.276;7.208;2024-01-15T00:42:56;25.20;;;12.35;;
78925;SDS011;68321;51.276;7.208;2024-01-15T00:45:22;27.25;;;11.55;;
78925;SDS011;68321;51.276;7.208;2024-01-15T00:47:49;24.58;;;12.52;;
78925;SDS011;68321;51.276;7.208;2024-01-15T00:50:14;23.17;;;11.68;;
78925;SDS011;68321;51.276;7.208;2024-01-15T00:52:40;22.88;;;12.63;;
78925;SDS011;68321;51.276;7.208;2024-01-15T00:55:05;25.55;;;11.55;;
78925;SDS011;68321;51.276;7.208;2024-01-15T00:57:31;17.90;;;8.55;;
78925;SDS011;68321;51.276;7.208;2024-01-15T00:59:57;26.70;;;12.10;;
78925;SDS011;68321;51.276;7.208;2024-01-15T01:02:25;23.63;;;11.65;;
78925;SDS011;68321;51.276;7.208;2024-01-15T01:04:51;21.90;;;8.65;;
78925;SDS011;68321;51.276;7.208;2024-01-15T01:07:16;24.77;;;11.93;;
78925;SDS011;68321;51.276;7.208;2024-01-15T01:09:42;24.40;;;11.48;;
78925;SDS011;68321;51.276;7.208;2024-01-15T01:12:09;22.23;;;11.52;;
78925;SDS011;68321;51.276;7.208;2024-01-15T01:14:35;29.27;;;13.45;;
78925;SDS011;68321;51.276;7.208;2024-01-15T01:17:03;22.38;;;11.55;;
78925;SDS011;68321;51.276;7.208;2024-01-15T01:19:31;26.30;;;12.57;;
78925;SDS011;68321;51.276;7.208;2024-01-15T01:21:57;29.40;;;15.10;;
78925;SDS011;68321;51.276;7.208;2024-01-15T01:24:23;30.02;;;14.25;;
78925;SDS011;68321;51.276;7.208;2024-01-15T01:26:48;29.20;;;14.63;;
78925;SDS011;68321;51.276;7.208;2024-01-15T01:29:15;28.52;;;14.40;;
78925;SDS011;68321;51.276;7.208;2024-01-15T01:31:45;23.33;;;11.43;;
78925;SDS011;68321;51.276;7.208;2024-01-15T01:34:15;24.67;;;12.60;;
78925;SDS011;68321;51.276;7.208;2024-01-15T01:36:44;32.50;;;13.27;;
78925;SDS011;68321;51.276;7.208;2024-01-15T01:39:15;31.88;;;14.98;;
78925;SDS011;68321;51.276;7.208;2024-01-15T01:41:41;30.17;;;13.43;;
78925;SDS011;68321;51.276;7.208;2024-01-15T01:44:06;28.20;;;13.05;;
78925;SDS011;68321;51.276;7.208;2024-01-15T01:46:36;30.00;;;13.70;;
78925;SDS011;68321;51.276;7.208;2024-01-15T01:49:05;27.30;;;12.63;;
78925;SDS011;68321;51.276;7.208;2024-01-15T01:51:31;23.65;;;13.05;;
78925;SDS011;68321;51.276;7.208;2024-01-15T01:53:58;26.10;;;12.50;;
78925;SDS011;68321;51.276;7.208;2024-01-15T01:56:24;24.30;;;11.23;;
78925;SDS011;68321;51.276;7.208;2024-01-15T01:58:49;32.88;;;14.27;;
78925;SDS011;68321;51.276;7.208;2024-01-15T02:01:15;22.90;;;11.88;;
78925;SDS011;68321;51.276;7.208;2024-01-15T02:03:41;22.83;;;10.73;;
78925;SDS011;68321;51.276;7.208;2024-01-15T02:06:06;25.88;;;12.35;;
78925;SDS011;68321;51.276;7.208;2024-01-15T02:08:32;28.73;;;12.35;;
78925;SDS011;68321;51.276;7.208;2024-01-15T02:10:58;21.50;;;11.00;;
78925;SDS011;68321;51.276;7.208;2024-01-15T02:13:23;26.88;;;12.52;;
78925;SDS011;68321;51.276;7.208;2024-01-15T02:15:49;25.75;;;14.15;;
78925;SDS011;68321;51.276;7.208;2024-01-15T02:18:16;27.15;;;13.40;;
78925;SDS011;68321;51.276;7.208;2024-01-15T02:20:41;19.08;;;11.00;;
78925;SDS011;68321;51.276;7.208;2024-01-15T02:23:10;23.55;;;12.43;;
78925;SDS011;68321;51.276;7.208;2024-01-15T02:25:38;25.02;;;12.43;;
78925;SDS011;68321;51.276;7.208;2024-01-15T02:28:05;22.90;;;10.60;;
78925;SDS011;68321;51.276;7.208;2024-01-15T02:30:31;21.95;;;11.77;;
78925;SDS011;68321;51.276;7.208;2024-01-15T02:32:57;25.25;;;13.13;;
78925;SDS011;68321;51.276;7.208;2024-01-15T02:35:23;25.98;;;13.57;;
78925;SDS011;68321;51.276;7.208;2024-01-15T02:37:51;21.88;;;11.40;;
78925;SDS011;68321;51.276;7.208;2024-01-15T02:40:18;17.67;;;9.73;;
78925;SDS011;68321;51.276;7.208;2024-01-15T02:42:44;27.38;;;13.88;;
78925;SDS011;68321;51.276;7.208;2024-01-15T02:45:11;23.70;;;10.63;;
78925;SDS011;68321;51.276;7.208;2024-01-15T02:47:38;24.98;;;13.40;;
78925;SDS011;68321;51.276;7.208;2024-01-15T02:50:04;24.42;;;12.25;;
78925;SDS011;68321;51.276;7.208;2024-01-15T02:52:30;26.00;;;12.43;;
78925;SDS011;68321;51.276;7.208;2024-01-15T02:54:56;22.48;;;11.25;;
78925;SDS011;68321;51.276;7.208;2024-01-15T02:57:23;23.80;;;11.05;;
78925;SDS011;68321;51.276;7.208;2024-01-15T02:59:48;22.08;;;11.40;;
78925;SDS011;68321;51.276;7.208;2024-01-15T03:02:14;29.33;;;12.75;;
78925;SDS011;68321;51.276;7.208;2024-01-15T03:04:43;27.55;;;11.68;;
78925;SDS011;68321;51.276;7.208;2024-01-15T03:07:09;18.65;;;10.98;;
78925;SDS011;68321;51.276;7.208;2024-01-15T03:09:34;24.30;;;11.45;;
78925;SDS011;68321;51.276;7.208;2024-01-15T03:12:00;25.33;;;12.15;;
78925;SDS011;68321;51.276;7.208;2024-01-15T03:14:27;22.80;;;10.63;;
78925;SDS011;68321;51.276;7.208;2024-01-15T03:16:52;25.17;;;12.40;;
78925;SDS011;68321;51.276;7.208;2024-01-15T03:19:18;22.40;;;10.88;;
78925;SDS011;68321;51.276;7.208;2024-01-15T03:21:44;24.35;;;11.35;;
78925;SDS011;68321;51.276;7.208;2024-01-15T03:24:10;21.77;;;10.65;;
78925;SDS011;68321;51.276;7.208;2024-01-15T03:29:04;16.80;;;9.38;;
78925;SDS011;68321;51.276;7.208;2024-01-15T03:31:33;19.85;;;8.00;;
78925;SDS011;68321;51.276;7.208;2024-01-15T03:33:58;14.40;;;7.93;;
78925;SDS011;68321;51.276;7.208;2024-01-15T03:36:24;20.38;;;10.35;;
78925;SDS011;68321;51.276;7.208;2024-01-15T03:38:50;23.38;;;12.00;;
78925;SDS011;68321;51.276;7.208;2024-01-15T03:41:16;19.10;;;8.93;;
78925;SDS011;68321;51.276;7.208;2024-01-15T03:43:41;18.60;;;9.77;;
78925;SDS011;68321;51.276;7.208;2024-01-15T03:46:07;15.07;;;8.30;;
78925;SDS011;68321;51.276;7.208;2024-01-15T03:48:32;18.83;;;9.10;;
78925;SDS011;68321;51.276;7.208;2024-01-15T03:50:58;21.90;;;9.75;;
78925;SDS011;68321;51.276;7.208;2024-01-15T03:53:23;16.38;;;9.27;;
78925;SDS011;68321;51.276;7.208;2024-01-15T03:55:49;20.90;;;9.85;;
78925;SDS011;68321;51.276;7.208;2024-01-15T03:58:15;22.15;;;10.93;;
78925;SDS011;68321;51.276;7.208;2024-01-15T04:00:42;16.50;;;8.90;;
78925;SDS011;68321;51.276;7.208;2024-01-15T04:03:07;16.70;;;9.30;;
78925;SDS011;68321;51.276;7.208;2024-01-15T04:05:33;15.82;;;8.25;;
78925;SDS011;68321;51.276;7.208;2024-01-15T04:07:58;18.55;;;8.55;;
78925;SDS011;68321;51.276;7.208;2024-01-15T04:10:24;26.25;;;11.10;;
78925;SDS011;68321;51.276;7.208;2024-01-15T04:12:49;18.90;;;7.97;;
78925;SDS011;68321;51.276;7.208;2024-01-15T04:15:16;27.40;;;8.05;;
78925;SDS011;68321;51.276;7.208;2024-01-15T04:17:41;13.82;;;7.45;;
78925;SDS011;68321;51.276;7.208;2024-01-15T04:20:08;15.32;;;6.65;;
78925;SDS011;68321;51.276;7.208;2024-01-15T04:22:34;14.80;;;8.25;;
78925;SDS011;68321;51.276;7.208;2024-01-15T04:25:00;20.48;;;9.60;;
78925;SDS011;68321;51.276;7.208;2024-01-15T04:27:26;17.60;;;8.50;;
78925;SDS011;68321;51.276;7.208;2024-01-15T04:29:51;16.92;;;9.15;;
78925;SDS011;68321;51.276;7.208;2024-01-15T04:32:17;12.60;;;7.95;;
78925;SDS011;68321;51.276;7.208;2024-01-15T04:34:45;12.60;;;8.10;;
78925;SDS011;68321;51.276;7.208;2024-01-15T04:37:13;15.18;;;8.07;;
78925;SDS011;68321;51.276;7.208;2024-01-15T04:39:40;17.30;;;9.13;;
78925;SDS011;68321;51.276;7.208;2024-01-15T04:42:06;17.98;;;8.27;;
78925;SDS011;68321;51.276;7.208;2024-01-15T04:44:31;12.45;;;6.35;;
78925;SDS011;68321;51.276;7.208;2024-01-15T04:46:57;13.73;;;9.60;;
78925;SDS011;68321;51.276;7.208;2024-01-15T04:49:23;17.10;;;8.63;;
78925;SDS011;68321;51.276;7.208;2024-01-15T04:51:51;13.15;;;6.68;;
78925;SDS011;68321;51.276;7.208;2024-01-15T04:54:17;15.75;;;8.18;;
78925;SDS011;68321;51.276;7.208;2024-01-15T04:56:43;15.82;;;8.55;;
78925;SDS011;68321;51.276;7.208;2024-01-15T04:59:09;15.02;;;8.50;;
78925;SDS011;68321;51.276;7.208;2024-01-15T05:01:35;17.30;;;9.77;;
78925;SDS011;68321;51.276;7.208;2024-01-15T05:04:00;14.57;;;7.70;;
78925;SDS011;68321;51.276;7.208;2024-01-15T05:06:26;13.90;;;7.85;;
78925;SDS011;68321;51.276;7.208;2024-01-15T05:08:52;10.43;;;5.75;;
78925;SDS011;68321;51.276;7.208;2024-01-15T05:11:17;19.00;;;7.53;;
78925;SDS011;68321;51.276;7.208;2024-01-15T05:13:43;17.67;;;8.98;;
78925;SDS011;68321;51.276;7.208;2024-01-15T05:16:09;14.23;;;8.38;;
78925;SDS011;68321;51.276;7.208;2024-01-15T05:18:34;15.80;;;7.38;;
78925;SDS011;68321;51.276;7.208;2024-01-15T05:21:02;11.52;;;7.82;;
78925;SDS011;68321;51.276;7.208;2024-01-15T05:23:28;17.80;;;7.80;;
78925;SDS011;68321;51.276;7.208;2024-01-15T05:25:54;17.48;;;8.05;;
78925;SDS011;68321;51.276;7.208;2024-01-15T05:28:19;12.90;;;8.70;;
78925;SDS011;68321;51.276;7.208;2024-01-15T05:30:44;18.38;;;7.53;;
78925;SDS011;68321;51.276;7.208;2024-01-15T05:33:11;18.98;;;8.60;;
78925;SDS011;68321;51.276;7.208;2024-01-15T05:35:37;17.90;;;8.45;;
78925;SDS011;68321;51.276;7.208;2024-01-15T05:38:03;14.60;;;8.15;;
78925;SDS011;68321;51.276;7.208;2024-01-15T05:40:28;17.90;;;9.02;;
78925;SDS011;68321;51.276;7.208;2024-01-15T05:42:54;17.73;;;8.75;;
78925;SDS011;68321;51.276;7.208;2024-01-15T05:45:20;16.42;;;7.65;;
78925;SDS011;68321;51.276;7.208;2024-01-15T05:47:45;14.77;;;7.45;;
78925;SDS011;68321;51.276;7.208;2024-01-15T05:50:10;22.25;;;9.55;;
78925;SDS011;68321;51.276;7.208;2024-01-15T05:52:36;15.93;;;8.18;;
78925;SDS011;68321;51.276;7.208;2024-01-15T05:55:03;14.48;;;8.05;;
78925;SDS011;68321;51.276;7.208;2024-01-15T05:57:31;22.65;;;8.27;;
78925;SDS011;68321;51.276;7.208;2024-01-15T05:59:57;16.08;;;7.68;;
78925;SDS011;68321;51.276;7.208;2024-01-15T06:02:22;12.48;;;8.10;;
78925;SDS011;68321;51.276;7.208;2024-01-15T06:04:48;12.35;;;7.70;;
78925;SDS011;68321;51.276;7.208;2024-01-15T06:07:13;16.55;;;7.28;;
78925;SDS011;68321;51.276;7.208;2024-01-15T06:09:39;15.35;;;8.43;;
78925;SDS011;68321;51.276;7.208;2024-01-15T06:12:06;20.27;;;9.00;;
78925;SDS011;68321;51.276;7.208;2024-01-15T06:14:32;17.15;;;7.57;;
78925;SDS011;68321;51.276;7.208;2024-01-15T06:16:58;14.90;;;8.27;;
78925;SDS011;68321;51.276;7.208;2024-01-15T06:19:23;16.85;;;6.85;;
78925;SDS011;68321;51.276;7.208;2024-01-15T06:21:49;12.13;;;7.25;;
78925;SDS011;68321;51.276;7.208;2024-01-15T06:24:14;15.15;;;7.07;;
78925;SDS011;68321;51.276;7.208;2024-01-15T06:26:40;22.52;;;7.68;;
78925;SDS011;68321;51.276;7.208;2024-01-15T06:29:06;9.82;;;6.80;;
78925;SDS011;68321;51.276;7.208;2024-01-15T06:31:31;15.10;;;7.55;;
78925;SDS011;68321;51.276;7.208;2024-01-15T06:33:57;12.95;;;6.72;;
78925;SDS011;68321;51.276;7.208;2024-01-15T06:36:24;16.73;;;6.50;;
78925;SDS011;68321;51.276;7.208;2024-01-15T06:38:50;18.15;;;5.78;;
78925;SDS011;68321;51.276;7.208;2024-01-15T06:41:15;17.00;;;7.45;;
78925;SDS011;68321;51.276;7.208;2024-01-15T06:43:40;17.77;;;6.63;;
78925;SDS011;68321;51.276;7.208;2024-01-15T06:46:06;9.43;;;5.90;;
78925;SDS011;68321;51.276;7.208;2024-01-15T06:48:32;16.00;;;8.20;;
78925;SDS011;68321;51.276;7.208;2024-01-15T06:50:58;14.48;;;7.50;;
78925;SDS011;68321;51.276;7.208;2024-01-15T06:53:25;7.35;;;4.10;;
78925;SDS011;68321;51.276;7.208;2024-01-15T06:55:52;6.43;;;4.00;;
78925;SDS011;68321;51.276;7.208;2024-01-15T06:58:18;11.15;;;6.55;;
78925;SDS011;68321;51.276;7.208;2024-01-15T07:00:43;11.93;;;7.05;;
78925;SDS011;68321;51.276;7.208;2024-01-15T07:03:11;15.18;;;7.07;;
78925;SDS011;68321;51.276;7.208;2024-01-15T07:05:37;17.20;;;8.13;;
78925;SDS011;68321;51.276;7.208;2024-01-15T07:08:03;11.10;;;7.32;;
78925;SDS011;68321;51.276;7.208;2024-01-15T07:10:29;9.63;;;6.15;;
78925;SDS011;68321;51.276;7.208;2024-01-15T07:12:55;10.68;;;5.45;;
78925;SDS011;68321;51.276;7.208;2024-01-15T07:15:21;11.35;;;5.38;;
78925;SDS011;68321;51.276;7.208;2024-01-15T07:17:47;7.22;;;5.53;;
78925;SDS011;68321;51.276;7.208;2024-01-15T07:20:13;10.35;;;5.10;;
78925;SDS011;68321;51.276;7.208;2024-01-15T07:22:41;9.13;;;5.07;;
78925;SDS011;68321;51.276;7.208;2024-01-15T07:25:07;6.80;;;4.78;;
78925;SDS011;68321;51.276;7.208;2024-01-15T07:27:34;4.95;;;3.25;;
78925;SDS011;68321;51.276;7.208;2024-01-15T07:30:00;12.00;;;5.80;;
78925;SDS011;68321;51.276;7.208;2024-01-15T07:32:30;10.52;;;6.60;;
78925;SDS011;68321;51.276;7.208;2024-01-15T07:34:56;9.95;;;5.55;;
78925;SDS011;68321;51.276;7.208;2024-01-15T07:37:22;8.88;;;5.15;;
78925;SDS011;68321;51.276;7.208;2024-01-15T07:39:48;10.13;;;4.93;;
78925;SDS011;68321;51.276;7.208;2024-01-15T07:42:14;7.00;;;3.92;;
78925;SDS011;68321;51.276;7.208;2024-01-15T07:44:41;9.55;;;5.28;;
78925;SDS011;68321;51.276;7.208;2024-01-15T07:47:06;10.88;;;5.00;;
78925;SDS011;68321;51.276;7.208;2024-01-15T07:49:34;7.30;;;4.05;;
78925;SDS011;68321;51.276;7.208;2024-01-15T07:52:00;7.80;;;4.20;;
78925;SDS011;68321;51.276;7.208;2024-01-15T07:54:26;7.82;;;4.40;;
78925;SDS011;68321;51.276;7.208;2024-01-15T07:59:20;10.95;;;6.03;;
78925;SDS011;68321;51.276;7.208;2024-01-15T08:01:46;9.20;;;4.68;;
78925;SDS011;68321;51.276;7.208;2024-01-15T08:04:12;8.18;;;4.88;;
78925;SDS011;68321;51.276;7.208;2024-01-15T08:06:38;8.90;;;6.65;;
78925;SDS011;68321;51.276;7.208;2024-01-15T08:09:04;9.90;;;6.30;;
78925;SDS011;68321;51.276;7.208;2024-01-15T08:11:29;9.25;;;5.55;;
78925;SDS011;68321;51.276;7.208;2024-01-15T08:13:55;12.23;;;7.45;;
78925;SDS011;68321;51.276;7.208;2024-01-15T08:16:21;8.10;;;5.32;;
78925;SDS011;68321;51.276;7.208;2024-01-15T08:18:47;11.27;;;6.57;;
78925;SDS011;68321;51.276;7.208;2024-01-15T08:21:13;9.38;;;6.50;;
78925;SDS011;68321;51.276;7.208;2024-01-15T08:23:38;14.05;;;7.53;;
78925;SDS011;68321;51.276;7.208;2024-01-15T08:26:04;16.98;;;7.57;;
78925;SDS011;68321;51.276;7.208;2024-01-15T08:28:30;13.27;;;7.38;;
78925;SDS011;68321;51.276;7.208;2024-01-15T08:30:57;10.18;;;6.53;;
78925;SDS011;68321;51.276;7.208;2024-01-15T08:33:25;11.02;;;6.45;;
78925;SDS011;68321;51.276;7.208;2024-01-15T08:35:50;11.30;;;6.93;;
78925;SDS011;68321;51.276;7.208;2024-01-15T08:38:15;23.30;;;5.53;;
78925;SDS011;68321;51.276;7.208;2024-01-15T08:40:41;8.95;;;4.93;;
78925;SDS011;68321;51.276;7.208;2024-01-15T08:43:09;9.27;;;6.05;;
78925;SDS011;68321;51.276;7.208;2024-01-15T08:45:35;7.47;;;4.88;;
78925;SDS011;68321;51.276;7.208;2024-01-15T08:48:00;9.15;;;4.85;;
78925;SDS011;68321;51.276;7.208;2024-01-15T08:50:26;12.30;;;6.57;;
78925;SDS011;68321;51.276;7.208;2024-01-15T08:52:52;10.05;;;6.32;;
78925;SDS011;68321;51.276;7.208;2024-01-15T08:55:19;8.65;;;5.10;;
78925;SDS011;68321;51.276;7.208;2024-01-15T08:57:48;8.73;;;6.47;;
78925;SDS011;68321;51.276;7.208;2024-01-15T09:00:17;8.57;;;5.82;;
78925;SDS011;68321;51.276;7.208;2024-01-15T09:02:43;9.13;;;5.68;;
78925;SDS011;68321;51.276;7.208;2024-01-15T09:05:09;8.35;;;5.40;;
78925;SDS011;68321;51.276;7.208;2024-01-15T09:07:35;14.13;;;5.72;;
78925;SDS011;68321;51.276;7.208;2024-01-15T09:10:03;8.93;;;5.18;;
78925;SDS011;68321;51.276;7.208;2024-01-15T09:12:29;8.93;;;5.03;;
78925;SDS011;68321;51.276;7.208;2024-01-15T09:14:55;9.20;;;6.03;;
78925;SDS011;68321;51.276;7.208;2024-01-15T09:17:21;6.57;;;4.97;;
78925;SDS011;68321;51.276;7.208;2024-01-15T09:19:48;8.80;;;4.85;;
78925;SDS011;68321;51.276;7.208;2024-01-15T09:22:14;6.80;;;3.90;;
78925;SDS011;68321;51.276;7.208;2024-01-15T09:24:46;8.02;;;4.65;;
78925;SDS011;68321;51.276;7.208;2024-01-15T09:27:14;8.23;;;4.47;;
78925;SDS011;68321;51.276;7.208;2024-01-15T09:29:42;7.22;;;4.65;;
78925;SDS011;68321;51.276;7.208;2024-01-15T09:32:09;6.07;;;4.05;;
78925;SDS011;68321;51.276;7.208;2024-01-15T09:34:34;5.95;;;3.80;;
78925;SDS011;68321;51.276;7.208;2024-01-15T09:37:00;5.22;;;3.38;;
78925;SDS011;68321;51.276;7.208;2024-01-15T09:39:26;5.95;;;4.03;;
78925;SDS011;68321;51.276;7.208;2024-01-15T09:41:52;4.68;;;3.25;;
78925;SDS011;68321;51.276;7.208;2024-01-15T09:44:19;6.18;;;4.25;;
78925;SDS011;68321;51.276;7.208;2024-01-15T09:46:45;6.15;;;3.92;;
78925;SDS011;68321;51.276;7.208;2024-01-15T09:49:14;5.68;;;3.50;;
78925;SDS011;68321;51.276;7.208;2024-01-15T09:51:41;5.43;;;3.33;;
78925;SDS011;68321;51.276;7.208;2024-01-15T09:54:08;5.78;;;3.63;;
78925;SDS011;68321;51.276;7.208;2024-01-15T09:56:34;5.68;;;3.75;;
78925;SDS011;68321;51.276;7.208;2024-01-15T09:59:00;6.07;;;3.50;;
78925;SDS011;68321;51.276;7.208;2024-01-15T10:01:27;5.72;;;3.42;;
78925;SDS011;68321;51.276;7.208;2024-01-15T10:03:54;7.05;;;3.95;;
78925;SDS011;68321;51.276;7.208;2024-01-15T10:06:19;7.10;;;3.03;;
78925;SDS011;68321;51.276;7.208;2024-01-15T10:08:47;3.65;;;2.10;;
78925;SDS011;68321;51.276;7.208;2024-01-15T10:11:14;5.13;;;3.15;;
78925;SDS011;68321;51.276;7.208;2024-01-15T10:13:39;5.03;;;3.28;;
78925;SDS011;68321;51.276;7.208;2024-01-15T10:16:05;5.90;;;4.25;;
78925;SDS011;68321;51.276;7.208;2024-01-15T10:18:31;5.22;;;3.22;;
78925;SDS011;68321;51.276;7.208;2024-01-15T10:20:59;8.50;;;4.68;;
78925;SDS011;68321;51.276;7.208;2024-01-15T10:23:25;6.82;;;4.28;;
78925;SDS011;68321;51.276;7.208;2024-01-15T10:25:50;5.93;;;3.83;;
78925;SDS011;68321;51.276;7.208;2024-01-15T10:28:17;3.13;;;2.03;;
78925;SDS011;68321;51.276;7.208;2024-01-15T10:30:44;6.88;;;3.03;;
78925;SDS011;68321;51.276;7.208;2024-01-15T10:33:10;5.35;;;3.75;;
78925;SDS011;68321;51.276;7.208;2024-01-15T10:35:37;6.85;;;3.97;;
78925;SDS011;68321;51.276;7.208;2024-01-15T10:38:03;7.68;;;4.25;;
78925;SDS011;68321;51.276;7.208;2024-01-15T10:40:30;4.70;;;3.72;;
78925;SDS011;68321;51.276;7.208;2024-01-15T10:42:57;6.65;;;4.15;;
78925;SDS011;68321;51.276;7.208;2024-01-15T10:45:23;5.50;;;4.00;;
78925;SDS011;68321;51.276;7.208;2024-01-15T10:47:48;5.90;;;3.72;;
78925;SDS011;68321;51.276;7.208;2024-01-15T10:50:14;3.92;;;2.60;;
78925;SDS011;68321;51.276;7.208;2024-01-15T10:52:40;5.05;;;3.00;;
78925;SDS011;68321;51.276;7.208;2024-01-15T10:55:08;4.80;;;3.15;;
78925;SDS011;68321;51.276;7.208;2024-01-15T10:57:37;6.43;;;4.22;;
78925;SDS011;68321;51.276;7.208;2024-01-15T11:00:04;2.70;;;2.00;;
78925;SDS011;68321;51.276;7.208;2024-01-15T11:02:32;6.03;;;2.85;;
78925;SDS011;68321;51.276;7.208;2024-01-15T11:04:59;5.50;;;3.10;;
78925;SDS011;68321;51.276;7.208;2024-01-15T11:07:25;3.67;;;2.63;;
78925;SDS011;68321;51.276;7.208;2024-01-15T11:09:52;4.13;;;2.92;;
78925;SDS011;68321;51.276;7.208;2024-01-15T11:12:18;4.75;;;3.55;;
78925;SDS011;68321;51.276;7.208;2024-01-15T11:14:48;2.78;;;2.35;;
78925;SDS011;68321;51.276;7.208;2024-01-15T11:17:16;4.97;;;3.70;;
78925;SDS011;68321;51.276;7.208;2024-01-15T11:19:46;5.47;;;3.70;;
78925;SDS011;68321;51.276;7.208;2024-01-15T11:24:57;7.07;;;3.10;;
78925;SDS011;68321;51.276;7.208;2024-01-15T11:27:41;5.65;;;3.10;;
78925;SDS011;68321;51.276;7.208;2024-01-15T11:30:17;5.50;;;2.38;;
78925;SDS011;68321;51.276;7.208;2024-01-15T11:32:45;3.70;;;2.38;;
78925;SDS011;68321;51.276;7.208;2024-01-15T11:35:11;5.53;;;2.40;;
78925;SDS011;68321;51.276;7.208;2024-01-15T11:40:21;3.58;;;2.50;;
78925;SDS011;68321;51.276;7.208;2024-01-15T11:42:49;4.88;;;3.20;;
78925;SDS011;68321;51.276;7.208;2024-01-15T11:45:18;5.90;;;3.25;;
78925;SDS011;68321;51.276;7.208;2024-01-15T11:50:13;4.60;;;3.00;;
78925;SDS011;68321;51.276;7.208;2024-01-15T11:52:39;5.18;;;2.92;;
78925;SDS011;68321;51.276;7.208;2024-01-15T11:57:55;2.70;;;2.00;;
78925;SDS011;68321;51.276;7.208;2024-01-15T12:00:24;6.68;;;2.78;;
78925;SDS011;68321;51.276;7.208;2024-01-15T12:02:50;5.10;;;2.50;;
78925;SDS011;68321;51.276;7.208;2024-01-15T12:05:19;4.32;;;2.45;;
78925;SDS011;68321;51.276;7.208;2024-01-15T12:07:46;4.25;;;2.08;;
78925;SDS011;68321;51.276;7.208;2024-01-15T12:10:14;1.67;;;1.33;;
78925;SDS011;68321;51.276;7.208;2024-01-15T12:15:17;4.40;;;1.52;;
78925;SDS011;68321;51.276;7.208;2024-01-15T12:17:43;2.90;;;1.90;;
78925;SDS011;68321;51.276;7.208;2024-01-15T12:20:11;4.03;;;2.20;;
78925;SDS011;68321;51.276;7.208;2024-01-15T12:22:37;4.47;;;1.95;;
78925;SDS011;68321;51.276;7.208;2024-01-15T12:25:03;3.60;;;1.40;;
78925;SDS011;68321;51.276;7.208;2024-01-15T12:27:30;5.28;;;2.50;;
78925;SDS011;68321;51.276;7.208;2024-01-15T12:29:57;3.75;;;1.75;;
78925;SDS011;68321;51.276;7.208;2024-01-15T12:32:24;2.65;;;1.75;;
78925;SDS011;68321;51.276;7.208;2024-01-15T12:34:50;4.05;;;2.03;;
78925;SDS011;68321;51.276;7.208;2024-01-15T12:37:18;3.72;;;1.85;;
78925;SDS011;68321;51.276;7.208;2024-01-15T12:39:45;2.25;;;1.77;;
78925;SDS011;68321;51.276;7.208;2024-01-15T12:42:11;3.55;;;1.80;;
78925;SDS011;68321;51.276;7.208;2024-01-15T12:44:39;2.85;;;2.05;;
78925;SDS011;68321;51.276;7.208;2024-01-15T12:47:04;3.60;;;1.75;;
78925;SDS011;68321;51.276;7.208;2024-01-15T12:49:30;2.97;;;2.13;;
78925;SDS011;68321;51.276;7.208;2024-01-15T12:51:59;5.20;;;2.35;;
78925;SDS011;68321;51.276;7.208;2024-01-15T12:54:25;5.78;;;1.90;;
78925;SDS011;68321;51.276;7.208;2024-01-15T12:56:54;2.05;;;1.55;;
78925;SDS011;68321;51.276;7.208;2024-01-15T12:59:21;4.30;;;2.28;;
78925;SDS011;68321;51.276;7.208;2024-01-15T13:01:48;4.85;;;2.65;;
78925;SDS011;68321;51.276;7.208;2024-01-15T13:04:23;3.45;;;1.95;;
78925;SDS011;68321;51.276;7.208;2024-01-15T13:06:51;7.57;;;2.45;;
78925;SDS011;68321;51.276;7.208;2024-01-15T13:09:17;4.75;;;2.38;;
78925;SDS011;68321;51.276;7.208;2024-01-15T13:11:53;3.95;;;2.25;;
78925;SDS011;68321;51.276;7.208;2024-01-15T13:16:44;3.78;;;2.63;;
78925;SDS011;68321;51.276;7.208;2024-01-15T13:19:11;2.80;;;1.90;;
78925;SDS011;68321;51.276;7.208;2024-01-15T13:21:38;4.13;;;2.60;;
78925;SDS011;68321;51.276;7.208;2024-01-15T13:24:04;6.60;;;2.55;;
78925;SDS011;68321;51.276;7.208;2024-01-15T13:26:34;4.47;;;2.03;;
78925;SDS011;68321;51.276;7.208;2024-01-15T13:29:03;4.00;;;2.90;;
78925;SDS011;68321;51.276;7.208;2024-01-15T13:31:29;4.22;;;2.42;;
78925;SDS011;68321;51.276;7.208;2024-01-15T13:33:56;5.28;;;3.53;;
78925;SDS011;68321;51.276;7.208;2024-01-15T13:36:23;5.72;;;3.22;;
78925;SDS011;68321;51.276;7.208;2024-01-15T13:38:49;7.80;;;3.28;;
78925;SDS011;68321;51.276;7.208;2024-01-15T13:41:16;5.20;;;3.50;;
78925;SDS011;68321;51.276;7.208;2024-01-15T13:43:44;5.47;;;2.95;;
78925;SDS011;68321;51.276;7.208;2024-01-15T13:46:16;4.88;;;3.13;;
78925;SDS011;68321;51.276;7.208;2024-01-15T13:48:42;5.05;;;3.10;;
78925;SDS011;68321;51.276;7.208;2024-01-15T13:51:08;12.65;;;5.05;;
78925;SDS011;68321;51.276;7.208;2024-01-15T13:53:34;6.97;;;4.25;;
78925;SDS011;68321;51.276;7.208;2024-01-15T13:55:59;8.13;;;4.32;;
78925;SDS011;68321;51.276;7.208;2024-01-15T13:58:25;4.57;;;3.08;;
78925;SDS011;68321;51.276;7.208;2024-01-15T14:00:52;8.43;;;4.47;;
78925;SDS011;68321;51.276;7.208;2024-01-15T14:03:17;7.13;;;3.70;;
78925;SDS011;68321;51.276;7.208;2024-01-15T14:05:44;4.60;;;3.25;;
78925;SDS011;68321;51.276;7.208;2024-01-15T14:08:12;7.88;;;4.05;;
78925;SDS011;68321;51.276;7.208;2024-01-15T14:10:37;5.07;;;3.13;;
78925;SDS011;68321;51.276;7.208;2024-01-15T14:13:04;7.10;;;4.57;;
78925;SDS011;68321;51.276;7.208;2024-01-15T14:15:29;5.28;;;2.72;;
78925;SDS011;68321;51.276;7.208;2024-01-15T14:17:55;5.85;;;3.45;;
78925;SDS011;68321;51.276;7.208;2024-01-15T14:20:21;4.93;;;3.22;;
78925;SDS011;68321;51.276;7.208;2024-01-15T14:22:48;5.50;;;2.88;;
78925;SDS011;68321;51.276;7.208;2024-01-15T14:25:15;6.03;;;3.15;;
78925;SDS011;68321;51.276;7.208;2024-01-15T14:27:42;4.93;;;2.78;;
78925;SDS011;68321;51.276;7.208;2024-01-15T14:30:10;4.07;;;2.75;;
78925;SDS011;68321;51.276;7.208;2024-01-15T14:32:38;4.30;;;3.22;;
78925;SDS011;68321;51.276;7.208;2024-01-15T14:35:07;5.28;;;2.95;;
78925;SDS011;68321;51.276;7.208;2024-01-15T14:37:37;5.88;;;3.63;;
78925;SDS011;68321;51.276;7.208;2024-01-15T14:40:04;4.13;;;2.50;;
78925;SDS011;68321;51.276;7.208;2024-01-15T14:42:33;5.00;;;2.58;;
78925;SDS011;68321;51.276;7.208;2024-01-15T14:44:59;7.57;;;3.05;;
78925;SDS011;68321;51.276;7.208;2024-01-15T14:47:24;4.40;;;3.33;;
78925;SDS011;68321;51.276;7.208;2024-01-15T14:49:52;3.20;;;2.30;;
78925;SDS011;68321;51.276;7.208;2024-01-15T14:52:17;6.35;;;2.97;;
78925;SDS011;68321;51.276;7.208;2024-01-15T14:54:44;5.22;;;2.88;;